Pool, WV (26684)

6:24 AM EST on December 04, 2016 (GMT -0500)
Wren Lane | | Change Station

Elev 2405 ft 38.04 °N, 80.92 °W | Updated 24 seconds ago

Mostly Cloudy
Mostly Cloudy
30.7 °F
Feels Like 31 °F
N
0.0
Wind Variable Wind from SSW

Today
High -- | Low -- °F
--% Chance of Precip.
Yesterday
High -- | Low -- °F
Precip. -- in
Pressure 30.25 in
Visibility 10.0 miles
Clouds Scattered Clouds 10000 ft
Mostly Cloudy 12000 ft
Windchill 31 °F
Dew Point 30 °F
Humidity 98%
Rainfall 0.00 in
Snow Depth Not available.
7:24 AM 5:03 PM
Waxing Crescent, 22% visible
METAR KBKW 041051Z AUTO 12005KT 10SM SCT100 BKN120 00/M04 A3017 RMK AO2 SLP243 T00001044
Pressure 30.25 in
Visibility 10.0 miles
Clouds Scattered Clouds 10000 ft
Mostly Cloudy 12000 ft
Windchill 31 °F
Dew Point 30 °F
Humidity 98%
Rainfall 0.00 in
Snow Depth Not available.
7:24 AM 5:03 PM
Waxing Crescent, 22% visible
METAR KBKW 041051Z AUTO 12005KT 10SM SCT100 BKN120 00/M04 A3017 RMK AO2 SLP243 T00001044

10-Day Weather Forecast

Almanac

Astronomy

Dec. 04, 2016 Rise Set
Actual Time
Civil Twilight
Nautical Twilight
Astronomical Twilight
Moon
Length of Visible Light
Length of Day
Tomorrow will be .
, % of the Moon is Illuminated

Today's Extremes

State Highs State Lows

Community

WunderPhotos

Upload Photos

1,955,593 photos uploaded!

WunderBlog® & News

Nearby

Air Quality

  Air Quality AQ Index Pollutant
Not available.

Snow Depth

Station Depth Elevation

Earthquake Activity

City Distance Mag. Time & Date
Minimum magnitude displayed is 2.5.

Coastal Water Temperatures

Place Temperature

Stations

Nearby Weather Stations

Station Location Temp. Windchill Dew Point Humidity Wind Precip. Elev Updated Type
                   

Watches & Warnings

There are currently no watches in effect.